createdAt,value
2018-09-05T00:00:09.037Z,1011.22
2018-09-05T00:00:35.177Z,1011.19
2018-09-05T00:01:01.314Z,1011.21
2018-09-05T00:01:27.447Z,1011.22
2018-09-05T00:01:53.584Z,1011.22
2018-09-05T00:02:19.715Z,1011.21
2018-09-05T00:02:45.845Z,1011.2
2018-09-05T00:03:11.980Z,1011.17
2018-09-05T00:03:38.152Z,1011.19
2018-09-05T00:04:04.252Z,1011.18
2018-09-05T00:04:30.392Z,1011.23
2018-09-05T00:04:56.520Z,1011.2
2018-09-05T00:05:22.653Z,1011.15
2018-09-05T00:05:48.790Z,1011.17
2018-09-05T00:06:14.953Z,1011.2
2018-09-05T00:06:41.097Z,1011.2
2018-09-05T00:07:07.230Z,1011.17
2018-09-05T00:07:33.370Z,1011.13
2018-09-05T00:07:59.692Z,1011.2
2018-09-05T00:08:25.861Z,1011.1
2018-09-05T00:08:52.146Z,1011.16
2018-09-05T00:09:18.427Z,1011.16
2018-09-05T00:09:44.672Z,1011.15
2018-09-05T00:10:10.806Z,1011.18
2018-09-05T00:10:36.939Z,1011.15
2018-09-05T00:11:03.078Z,1011.16
2018-09-05T00:11:29.215Z,1011.17
2018-09-05T00:11:55.357Z,1011.15
2018-09-05T00:12:22.060Z,1011.14
2018-09-05T00:12:48.189Z,1011.13
2018-09-05T00:13:14.319Z,1011.13
2018-09-05T00:13:40.464Z,1011.14
2018-09-05T00:14:06.598Z,1011.15
2018-09-05T00:14:33.087Z,1011.14
2018-09-05T00:14:59.223Z,1011.16
2018-09-05T00:15:25.358Z,1011.12
2018-09-05T00:15:51.515Z,1011.13
2018-09-05T00:16:17.725Z,1011.15
2018-09-05T00:16:44.123Z,1011.14
2018-09-05T00:17:10.266Z,1011.12
2018-09-05T00:17:36.395Z,1011.14
2018-09-05T00:18:02.530Z,1011.12
2018-09-05T00:18:28.801Z,1011.13
2018-09-05T00:18:55.003Z,1011.11
2018-09-05T00:19:21.148Z,1011.13
2018-09-05T00:19:47.310Z,1011.12
2018-09-05T00:20:13.625Z,1011.12
2018-09-05T00:20:39.762Z,1011.11
2018-09-05T00:21:06.045Z,1011.12
2018-09-05T00:21:32.131Z,1011.14
2018-09-05T00:21:58.273Z,1011.14
2018-09-05T00:22:24.407Z,1011.09
2018-09-05T00:22:50.540Z,1011.1
2018-09-05T00:23:17.054Z,1011.1
2018-09-05T00:23:43.270Z,1011.12
2018-09-05T00:24:09.401Z,1011.12
2018-09-05T00:24:35.591Z,1011.13
2018-09-05T00:25:03.289Z,1011.15
2018-09-05T00:25:29.423Z,1011.13
2018-09-05T00:25:55.555Z,1011.12
2018-09-05T00:26:21.686Z,1011.11
2018-09-05T00:26:47.848Z,1011.15
2018-09-05T00:27:14.117Z,1011.12
2018-09-05T00:27:40.476Z,1011.13
2018-09-05T00:28:06.541Z,1011.1
2018-09-05T00:28:32.678Z,1011.11
2018-09-05T00:28:58.814Z,1011.13
2018-09-05T00:29:25.052Z,1011.1
2018-09-05T00:29:51.242Z,1011.11
2018-09-05T00:30:17.455Z,1011.1
2018-09-05T00:30:43.618Z,1011.1
2018-09-05T00:31:09.765Z,1011.1
2018-09-05T00:31:35.938Z,1011.08
2018-09-05T00:32:02.076Z,1011.13
2018-09-05T00:32:28.215Z,1011.09
2018-09-05T00:32:54.501Z,1011.05
2018-09-05T00:33:20.809Z,1011.07
2018-09-05T00:33:46.939Z,1011.07
2018-09-05T00:34:13.076Z,1011.1
2018-09-05T00:34:39.238Z,1011.1
2018-09-05T00:35:05.375Z,1011.07
2018-09-05T00:35:32.171Z,1011.08
2018-09-05T00:35:58.300Z,1011.07
2018-09-05T00:36:24.491Z,1011.1
2018-09-05T00:36:50.587Z,1011.1
2018-09-05T00:37:16.728Z,1011.11
2018-09-05T00:37:42.865Z,1011.12
2018-09-05T00:38:09.161Z,1011.07
2018-09-05T00:38:35.257Z,1011.09
2018-09-05T00:39:01.392Z,1011.08
2018-09-05T00:39:27.528Z,1011.09
2018-09-05T00:39:53.664Z,1011.1
2018-09-05T00:40:19.799Z,1011.08
2018-09-05T00:40:46.093Z,1011.1
2018-09-05T00:41:12.388Z,1011.08
2018-09-05T00:41:38.525Z,1011.1
2018-09-05T00:42:04.675Z,1011.05
2018-09-05T00:42:30.813Z,1011.11
2018-09-05T00:42:56.978Z,1011.05
2018-09-05T00:43:23.260Z,1011.09
2018-09-05T00:43:49.503Z,1011.08
2018-09-05T00:44:15.673Z,1011.08
2018-09-05T00:44:41.816Z,1011.06
2018-09-05T00:45:07.965Z,1011.08
2018-09-05T00:45:34.130Z,1011.12
2018-09-05T00:46:00.929Z,1011.07
2018-09-05T00:46:27.044Z,1011.07
2018-09-05T00:46:53.188Z,1011.09
2018-09-05T00:47:19.321Z,1011.06
2018-09-05T00:47:45.455Z,1011.06
2018-09-05T00:48:11.590Z,1011.06
2018-09-05T00:48:38.225Z,1011.07
2018-09-05T00:49:04.412Z,1011.05
2018-09-05T00:49:30.549Z,1011.07
2018-09-05T00:49:56.709Z,1011
2018-09-05T00:50:22.868Z,1011.09
2018-09-05T00:50:49.306Z,1011.04
2018-09-05T00:51:15.581Z,1011.05
2018-09-05T00:51:41.744Z,1011.03
2018-09-05T00:52:07.883Z,1011.06
2018-09-05T00:52:34.019Z,1011.05
2018-09-05T00:53:00.175Z,1011.04
2018-09-05T00:53:26.339Z,1011.03
2018-09-05T00:53:52.632Z,1011.06
2018-09-05T00:54:18.844Z,1011.03
2018-09-05T00:54:44.985Z,1011.04
2018-09-05T00:55:11.122Z,1011.02
2018-09-05T00:55:37.254Z,1011
2018-09-05T00:56:03.388Z,1011.05
2018-09-05T00:56:29.676Z,1011.03
2018-09-05T00:56:55.944Z,1011.02
2018-09-05T00:57:22.077Z,1011.06
2018-09-05T00:57:48.213Z,1011.08
2018-09-05T00:58:14.359Z,1011.04
2018-09-05T00:58:40.534Z,1011.05
2018-09-05T00:59:06.851Z,1011.04
2018-09-05T00:59:33.006Z,1011.04
2018-09-05T00:59:59.144Z,1011.05
2018-09-05T01:00:25.277Z,1011.03
2018-09-05T01:00:51.407Z,1011.07
2018-09-05T01:01:17.544Z,1011.06
2018-09-05T01:01:43.833Z,1011.07
2018-09-05T01:02:10.061Z,1011.05
2018-09-05T01:02:36.186Z,1011.06
2018-09-05T01:03:02.320Z,1011.07
2018-09-05T01:03:28.447Z,1011.1
2018-09-05T01:03:54.590Z,1011.06
2018-09-05T01:04:20.745Z,1011.07
2018-09-05T01:04:46.885Z,1011.09
2018-09-05T01:05:13.048Z,1011.07
2018-09-05T01:05:39.179Z,1011.06
2018-09-05T01:06:05.335Z,1011.09
2018-09-05T01:06:31.469Z,1011.08
2018-09-05T01:06:57.617Z,1011.1
2018-09-05T01:07:23.769Z,1011.1
2018-09-05T01:07:49.905Z,1011.14
2018-09-05T01:08:16.036Z,1011.11
2018-09-05T01:08:42.174Z,1011.12
2018-09-05T01:09:08.311Z,1011.12
2018-09-05T01:09:34.447Z,1011.1
2018-09-05T01:10:00.577Z,1011.16
2018-09-05T01:10:26.760Z,1011.13
2018-09-05T01:10:52.895Z,1011.12
2018-09-05T01:11:19.051Z,1011.16
2018-09-05T01:11:45.186Z,1011.11
2018-09-05T01:12:11.324Z,1011.13
2018-09-05T01:12:37.461Z,1011.15
2018-09-05T01:13:03.600Z,1011.14
2018-09-05T01:13:29.730Z,1011.13
2018-09-05T01:13:55.866Z,1011.17
2018-09-05T01:14:22.028Z,1011.1
2018-09-05T01:14:48.159Z,1011.17
2018-09-05T01:15:14.324Z,1011.15
2018-09-05T01:15:40.459Z,1011.19
2018-09-05T01:16:06.594Z,1011.18
2018-09-05T01:16:32.723Z,1011.18
2018-09-05T01:16:58.860Z,1011.17
2018-09-05T01:17:25.001Z,1011.19
2018-09-05T01:17:51.132Z,1011.21
2018-09-05T01:18:17.270Z,1011.18
2018-09-05T01:18:43.397Z,1011.19
2018-09-05T01:19:09.538Z,1011.17
2018-09-05T01:19:35.670Z,1011.21
2018-09-05T01:20:01.820Z,1011.18
2018-09-05T01:20:27.955Z,1011.19
2018-09-05T01:20:54.093Z,1011.2
2018-09-05T01:21:20.265Z,1011.2
2018-09-05T01:21:46.413Z,1011.17
2018-09-05T01:22:12.571Z,1011.18
2018-09-05T01:22:38.714Z,1011.19
2018-09-05T01:23:04.852Z,1011.18
2018-09-05T01:23:31.035Z,1011.22
2018-09-05T01:23:57.117Z,1011.17
2018-09-05T01:24:23.310Z,1011.16
2018-09-05T01:24:49.428Z,1011.16
2018-09-05T01:25:15.594Z,1011.16
2018-09-05T01:25:41.722Z,1011.17
2018-09-05T01:26:07.855Z,1011.16
2018-09-05T01:26:33.993Z,1011.13
2018-09-05T01:27:00.130Z,1011.13
2018-09-05T01:27:26.288Z,1011.17
2018-09-05T01:27:52.418Z,1011.19
2018-09-05T01:28:18.556Z,1011.15
2018-09-05T01:28:44.690Z,1011.18
2018-09-05T01:29:10.832Z,1011.18
2018-09-05T01:29:36.977Z,1011.19
2018-09-05T01:30:03.117Z,1011.2
2018-09-05T01:30:29.276Z,1011.19
2018-09-05T01:30:55.410Z,1011.17
2018-09-05T01:31:21.541Z,1011.14
2018-09-05T01:31:47.681Z,1011.15
2018-09-05T01:32:13.807Z,1011.18
2018-09-05T01:32:39.954Z,1011.13
2018-09-05T01:33:06.085Z,1011.16
2018-09-05T01:33:32.220Z,1011.17
2018-09-05T01:33:58.353Z,1011.19
2018-09-05T01:34:24.488Z,1011.18
2018-09-05T01:34:50.628Z,1011.17
2018-09-05T01:35:16.755Z,1011.15
2018-09-05T01:35:42.894Z,1011.17
2018-09-05T01:36:09.027Z,1011.17
2018-09-05T01:36:35.162Z,1011.15
2018-09-05T01:37:01.321Z,1011.13
2018-09-05T01:37:27.460Z,1011.14
2018-09-05T01:37:53.591Z,1011.16
2018-09-05T01:38:19.760Z,1011.11
2018-09-05T01:38:45.898Z,1011.12
2018-09-05T01:39:12.032Z,1011.1
2018-09-05T01:39:38.162Z,1011.14
2018-09-05T01:40:04.295Z,1011.14
2018-09-05T01:40:30.452Z,1011.12
2018-09-05T01:40:56.615Z,1011.11
2018-09-05T01:41:22.755Z,1011.09
2018-09-05T01:41:48.899Z,1011.1
2018-09-05T01:42:15.023Z,1011.08
2018-09-05T01:42:41.158Z,1011.1
2018-09-05T01:43:07.291Z,1011.11
2018-09-05T01:43:33.432Z,1011.08
2018-09-05T01:43:59.570Z,1011.08
2018-09-05T01:44:25.709Z,1011.08
2018-09-05T01:44:51.843Z,1011.09
2018-09-05T01:45:18.007Z,1011.11
2018-09-05T01:45:44.137Z,1011.09
2018-09-05T01:46:10.300Z,1011.09
2018-09-05T01:46:36.454Z,1011.07
2018-09-05T01:47:02.586Z,1011.11
2018-09-05T01:47:28.725Z,1011.09
2018-09-05T01:47:54.863Z,1011.09
2018-09-05T01:48:21.003Z,1011.09
2018-09-05T01:48:47.128Z,1011.03
2018-09-05T01:49:13.285Z,1011.1
2018-09-05T01:49:39.414Z,1011.09
2018-09-05T01:50:05.554Z,1011.09
2018-09-05T01:50:31.687Z,1011.07
2018-09-05T01:50:57.820Z,1011.09
2018-09-05T01:51:23.950Z,1011.07
2018-09-05T01:51:50.093Z,1011.06
2018-09-05T01:52:16.228Z,1011.08
2018-09-05T01:52:42.411Z,1011.11
2018-09-05T01:53:08.544Z,1011.1
2018-09-05T01:53:34.697Z,1011.09
2018-09-05T01:54:00.853Z,1011.07
2018-09-05T01:54:26.989Z,1011.07
2018-09-05T01:54:53.126Z,1011.1
2018-09-05T01:55:19.289Z,1011.03
2018-09-05T01:55:45.445Z,1011.07
2018-09-05T01:56:11.584Z,1011.06
2018-09-05T01:56:37.718Z,1011.01
2018-09-05T01:57:03.855Z,1011.08
2018-09-05T01:57:29.994Z,1011.04
2018-09-05T01:57:56.131Z,1011.01
2018-09-05T01:58:22.264Z,1011.05
2018-09-05T01:58:48.400Z,1011
2018-09-05T01:59:14.537Z,1011.03
2018-09-05T01:59:40.679Z,1010.97
2018-09-05T02:00:06.808Z,1011
2018-09-05T02:00:32.953Z,1011.01
2018-09-05T02:00:59.083Z,1011.02
2018-09-05T02:01:25.218Z,1011.03
2018-09-05T02:01:51.349Z,1010.99
2018-09-05T02:02:17.487Z,1010.99
2018-09-05T02:02:43.620Z,1011.01
2018-09-05T02:03:09.752Z,1011.01
2018-09-05T02:03:35.915Z,1011.02
2018-09-05T02:04:02.050Z,1011.01
2018-09-05T02:04:28.216Z,1011.02
2018-09-05T02:04:54.348Z,1011.06
2018-09-05T02:05:20.484Z,1011.02
2018-09-05T02:05:46.623Z,1011.04
2018-09-05T02:06:12.761Z,1011.04
2018-09-05T02:06:38.904Z,1011.06
2018-09-05T02:07:05.061Z,1011.06
2018-09-05T02:07:31.211Z,1011.08
2018-09-05T02:07:57.350Z,1011.06
2018-09-05T02:08:23.584Z,1011.06
2018-09-05T02:08:49.716Z,1011.08
2018-09-05T02:09:15.868Z,1011.06
2018-09-05T02:09:42.027Z,1011.08
2018-09-05T02:10:08.163Z,1011.07
2018-09-05T02:10:34.308Z,1011.09
2018-09-05T02:11:00.466Z,1011.05
2018-09-05T02:11:26.593Z,1011.06
2018-09-05T02:11:52.747Z,1011.06
2018-09-05T02:12:18.859Z,1011.03
2018-09-05T02:12:45.016Z,1011.07
2018-09-05T02:13:11.142Z,1011.07
2018-09-05T02:13:37.281Z,1011.04
2018-09-05T02:14:03.417Z,1011.06
2018-09-05T02:14:29.550Z,1011.04
2018-09-05T02:14:55.685Z,1011.06
2018-09-05T02:15:21.823Z,1011.05
2018-09-05T02:15:47.957Z,1011.04
2018-09-05T02:16:14.086Z,1011.03
2018-09-05T02:16:40.229Z,1011.07
2018-09-05T02:17:06.358Z,1011.06
2018-09-05T02:17:32.511Z,1011.03
2018-09-05T02:17:58.649Z,1011.03
2018-09-05T02:18:24.814Z,1011.06
2018-09-05T02:18:50.971Z,1011.05
2018-09-05T02:19:17.106Z,1011.02
2018-09-05T02:19:43.243Z,1011.06
2018-09-05T02:20:09.375Z,1011.06
2018-09-05T02:20:35.510Z,1011.07
2018-09-05T02:21:01.645Z,1011.07
2018-09-05T02:21:27.805Z,1011.03
2018-09-05T02:21:53.938Z,1011.04
2018-09-05T02:22:20.073Z,1011.08
2018-09-05T02:22:46.208Z,1011.04
2018-09-05T02:23:12.345Z,1011.04
2018-09-05T02:23:38.472Z,1011.04
2018-09-05T02:24:04.612Z,1011.03
2018-09-05T02:24:30.751Z,1011.03
2018-09-05T02:24:56.887Z,1011.02
2018-09-05T02:25:23.042Z,1011.02
2018-09-05T02:25:49.177Z,1011.03
2018-09-05T02:26:15.314Z,1011.04
2018-09-05T02:26:41.450Z,1011.03
2018-09-05T02:27:07.606Z,1011.02
2018-09-05T02:27:33.739Z,1011.02
2018-09-05T02:27:59.874Z,1011.03
2018-09-05T02:28:26.010Z,1011.04
2018-09-05T02:28:52.147Z,1011.06
2018-09-05T02:29:18.282Z,1011.02
2018-09-05T02:29:44.419Z,1011
2018-09-05T02:30:10.559Z,1011.02
2018-09-05T02:30:36.698Z,1011
2018-09-05T02:31:02.830Z,1011.02
2018-09-05T02:31:28.967Z,1011.01
2018-09-05T02:31:55.128Z,1010.98
2018-09-05T02:32:21.284Z,1011.01
2018-09-05T02:32:47.415Z,1011
2018-09-05T02:33:13.549Z,1010.98
2018-09-05T02:33:39.688Z,1011
2018-09-05T02:34:05.862Z,1011.03
2018-09-05T02:34:32.015Z,1011.01
2018-09-05T02:34:58.143Z,1010.98
2018-09-05T02:35:24.282Z,1011.01
2018-09-05T02:35:50.415Z,1011
2018-09-05T02:36:16.592Z,1010.99
2018-09-05T02:36:42.749Z,1010.98
2018-09-05T02:37:08.892Z,1011.01
2018-09-05T02:37:35.034Z,1011
2018-09-05T02:38:01.193Z,1010.99
2018-09-05T02:38:27.357Z,1010.98
2018-09-05T02:38:53.492Z,1010.97
2018-09-05T02:39:19.658Z,1010.97
2018-09-05T02:39:45.811Z,1010.97
2018-09-05T02:40:11.997Z,1010.94
2018-09-05T02:40:38.164Z,1010.94
2018-09-05T02:41:04.303Z,1010.98
2018-09-05T02:41:30.427Z,1010.95
2018-09-05T02:41:56.584Z,1010.94
2018-09-05T02:42:22.718Z,1010.96
2018-09-05T02:42:48.901Z,1010.98
2018-09-05T02:43:15.029Z,1010.99
2018-09-05T02:43:41.164Z,1010.97
2018-09-05T02:44:07.328Z,1010.99
2018-09-05T02:44:33.478Z,1010.97
2018-09-05T02:44:59.613Z,1010.99
2018-09-05T02:45:25.751Z,1010.97
2018-09-05T02:45:51.888Z,1010.95
2018-09-05T02:46:18.016Z,1010.97
2018-09-05T02:46:44.157Z,1010.96
2018-09-05T02:47:10.287Z,1011.01
2018-09-05T02:47:36.428Z,1010.96
2018-09-05T02:48:02.567Z,1010.99
2018-09-05T02:48:28.700Z,1010.97
2018-09-05T02:48:54.859Z,1010.96
2018-09-05T02:49:20.987Z,1010.99
2018-09-05T02:49:47.147Z,1010.99
2018-09-05T02:50:13.298Z,1010.97
2018-09-05T02:50:39.439Z,1011
2018-09-05T02:51:05.618Z,1011.01
2018-09-05T02:51:31.750Z,1010.99
2018-09-05T02:51:57.890Z,1010.99
2018-09-05T02:52:24.030Z,1011.03
2018-09-05T02:52:50.195Z,1010.98
2018-09-05T02:53:16.320Z,1011.01
2018-09-05T02:53:42.475Z,1011
2018-09-05T02:54:08.610Z,1010.99
2018-09-05T02:54:34.776Z,1011.01
2018-09-05T02:55:00.917Z,1010.99
2018-09-05T02:55:27.070Z,1010.99
2018-09-05T02:55:53.227Z,1011.03
2018-09-05T02:56:19.361Z,1011.01
2018-09-05T02:56:45.488Z,1011.04
2018-09-05T02:57:11.695Z,1011
2018-09-05T02:57:37.778Z,1010.99
2018-09-05T02:58:03.934Z,1010.99
2018-09-05T02:58:30.070Z,1011
2018-09-05T02:58:56.234Z,1011
2018-09-05T02:59:22.364Z,1010.99
2018-09-05T02:59:48.496Z,1011.03
2018-09-05T03:00:14.639Z,1011.02
2018-09-05T03:00:40.788Z,1011.02
2018-09-05T03:01:06.930Z,1011.01
2018-09-05T03:01:33.061Z,1010.99
2018-09-05T03:01:59.198Z,1010.98
2018-09-05T03:02:25.376Z,1011
2018-09-05T03:02:51.508Z,1011.02
2018-09-05T03:03:17.646Z,1011
2018-09-05T03:03:43.778Z,1011.03
2018-09-05T03:04:09.943Z,1011.01
2018-09-05T03:04:36.081Z,1010.97
2018-09-05T03:05:02.216Z,1010.98
2018-09-05T03:05:28.351Z,1010.96
2018-09-05T03:05:54.509Z,1011.02
2018-09-05T03:06:20.686Z,1010.98
2018-09-05T03:06:46.874Z,1010.99
2018-09-05T03:07:13.008Z,1011
2018-09-05T03:07:39.147Z,1011.01
2018-09-05T03:08:05.280Z,1010.96
2018-09-05T03:08:31.417Z,1010.97
2018-09-05T03:08:57.552Z,1010.98
2018-09-05T03:09:23.830Z,1010.99
2018-09-05T03:09:49.863Z,1010.95
2018-09-05T03:10:16.041Z,1010.95
2018-09-05T03:10:42.190Z,1010.95
2018-09-05T03:11:08.380Z,1010.97
2018-09-05T03:11:34.507Z,1010.94
2018-09-05T03:12:00.663Z,1010.97
2018-09-05T03:12:26.802Z,1010.94
2018-09-05T03:12:52.960Z,1010.97
2018-09-05T03:13:19.096Z,1010.94
2018-09-05T03:13:45.260Z,1010.93
2018-09-05T03:14:11.417Z,1010.93
2018-09-05T03:14:37.579Z,1010.93
2018-09-05T03:15:03.747Z,1010.96
2018-09-05T03:15:29.903Z,1010.96
2018-09-05T03:15:56.044Z,1010.94
2018-09-05T03:16:22.219Z,1010.97
2018-09-05T03:16:48.357Z,1010.95
2018-09-05T03:17:14.517Z,1010.94
2018-09-05T03:17:40.649Z,1010.93
2018-09-05T03:18:06.792Z,1010.94
2018-09-05T03:18:32.948Z,1010.95
2018-09-05T03:18:59.080Z,1010.95
2018-09-05T03:19:25.222Z,1010.96
2018-09-05T03:19:51.383Z,1010.94
2018-09-05T03:20:17.522Z,1010.93
2018-09-05T03:20:43.687Z,1010.98
2018-09-05T03:21:09.867Z,1011
2018-09-05T03:21:36.024Z,1010.93
2018-09-05T03:22:02.164Z,1011
2018-09-05T03:22:28.303Z,1010.96
2018-09-05T03:22:54.430Z,1010.98
2018-09-05T03:23:20.610Z,1010.98
2018-09-05T03:23:46.712Z,1010.97
2018-09-05T03:24:12.845Z,1010.95
2018-09-05T03:24:38.974Z,1010.98
2018-09-05T03:25:05.140Z,1010.99
2018-09-05T03:25:31.302Z,1010.96
2018-09-05T03:25:57.457Z,1010.97
2018-09-05T03:26:23.586Z,1010.97
2018-09-05T03:26:49.724Z,1010.95
2018-09-05T03:27:15.885Z,1010.93
2018-09-05T03:27:42.049Z,1010.97
2018-09-05T03:28:08.228Z,1011
2018-09-05T03:28:34.368Z,1010.99
2018-09-05T03:29:00.515Z,1010.97
2018-09-05T03:29:26.650Z,1010.98
2018-09-05T03:29:52.822Z,1010.98
2018-09-05T03:30:18.964Z,1011.01
2018-09-05T03:30:45.119Z,1010.98
2018-09-05T03:31:11.277Z,1011
2018-09-05T03:31:37.446Z,1010.98
2018-09-05T03:32:03.574Z,1010.98
2018-09-05T03:32:29.955Z,1011.04
2018-09-05T03:32:55.891Z,1011.02
2018-09-05T03:33:22.014Z,1011.03
2018-09-05T03:33:48.160Z,1011.01
2018-09-05T03:34:14.290Z,1011.04
2018-09-05T03:34:40.475Z,1011.01
2018-09-05T03:35:06.609Z,1010.99
2018-09-05T03:35:32.770Z,1011.04
2018-09-05T03:35:58.903Z,1011.04
2018-09-05T03:36:25.064Z,1011.04
2018-09-05T03:36:51.199Z,1011.03
2018-09-05T03:37:17.382Z,1011.02
2018-09-05T03:37:43.515Z,1011.05
2018-09-05T03:38:09.669Z,1011.05
2018-09-05T03:38:35.837Z,1011
2018-09-05T03:39:01.970Z,1011.03
2018-09-05T03:39:28.146Z,1011.01
2018-09-05T03:39:54.299Z,1011
2018-09-05T03:40:20.494Z,1011.01
2018-09-05T03:40:46.638Z,1011
2018-09-05T03:41:12.781Z,1011.03
2018-09-05T03:41:38.915Z,1011.02
2018-09-05T03:42:05.051Z,1011
2018-09-05T03:42:31.188Z,1011.01
2018-09-05T03:42:57.339Z,1011.01
2018-09-05T03:43:23.477Z,1011.05
2018-09-05T03:43:49.614Z,1011.03
2018-09-05T03:44:15.765Z,1010.97
2018-09-05T03:44:41.897Z,1011.02
2018-09-05T03:45:08.056Z,1011.02
2018-09-05T03:45:34.185Z,1011
2018-09-05T03:46:00.321Z,1011.02
2018-09-05T03:46:26.502Z,1011.02
2018-09-05T03:46:52.660Z,1011.03
2018-09-05T03:47:18.798Z,1011.06
2018-09-05T03:47:44.927Z,1011.03
2018-09-05T03:48:11.059Z,1011.05
2018-09-05T03:48:37.195Z,1011.03
2018-09-05T03:49:03.352Z,1011.01
2018-09-05T03:49:29.491Z,1011.02
2018-09-05T03:49:55.631Z,1011.04
2018-09-05T03:50:21.765Z,1011.07
2018-09-05T03:50:47.911Z,1011.08
2018-09-05T03:51:14.052Z,1011.07
2018-09-05T03:51:40.181Z,1011.04
2018-09-05T03:52:06.320Z,1011.05
2018-09-05T03:52:32.454Z,1011.09
2018-09-05T03:52:58.614Z,1011.1
2018-09-05T03:53:24.774Z,1011.12
2018-09-05T03:53:50.912Z,1011.1
2018-09-05T03:54:17.047Z,1011.11
2018-09-05T03:54:43.209Z,1011.1
2018-09-05T03:55:09.351Z,1011.11
2018-09-05T03:55:35.485Z,1011.11
2018-09-05T03:56:01.614Z,1011.1
2018-09-05T03:56:27.761Z,1011.16
2018-09-05T03:56:53.891Z,1011.12
2018-09-05T03:57:20.053Z,1011.12
2018-09-05T03:57:46.175Z,1011.11
2018-09-05T03:58:12.338Z,1011.11
2018-09-05T03:58:38.524Z,1011.16
2018-09-05T03:59:04.663Z,1011.11
2018-09-05T03:59:30.794Z,1011.15
2018-09-05T03:59:56.982Z,1011.14
2018-09-05T04:00:23.141Z,1011.16
2018-09-05T04:00:49.276Z,1011.13
2018-09-05T04:01:15.408Z,1011.17
2018-09-05T04:01:41.543Z,1011.14
2018-09-05T04:02:07.704Z,1011.17
2018-09-05T04:02:33.861Z,1011.14
2018-09-05T04:03:00.018Z,1011.15
2018-09-05T04:03:26.170Z,1011.14
2018-09-05T04:03:52.333Z,1011.19
2018-09-05T04:04:18.490Z,1011.13
2018-09-05T04:04:44.628Z,1011.17
2018-09-05T04:05:10.905Z,1011.18
2018-09-05T04:05:36.941Z,1011.17
2018-09-05T04:06:03.071Z,1011.19
2018-09-05T04:06:29.201Z,1011.16
2018-09-05T04:06:55.338Z,1011.19
2018-09-05T04:07:21.481Z,1011.17
2018-09-05T04:07:47.617Z,1011.2
2018-09-05T04:08:13.772Z,1011.21
2018-09-05T04:08:39.937Z,1011.19
2018-09-05T04:09:06.070Z,1011.17
2018-09-05T04:09:32.232Z,1011.19
2018-09-05T04:09:58.390Z,1011.2
2018-09-05T04:10:24.548Z,1011.18
2018-09-05T04:10:50.682Z,1011.2
2018-09-05T04:11:16.814Z,1011.2
2018-09-05T04:11:42.942Z,1011.19
2018-09-05T04:12:09.116Z,1011.2
2018-09-05T04:12:35.238Z,1011.19
2018-09-05T04:13:01.372Z,1011.19
2018-09-05T04:13:27.505Z,1011.2
2018-09-05T04:13:53.676Z,1011.16
2018-09-05T04:14:19.803Z,1011.21
2018-09-05T04:14:45.935Z,1011.22
2018-09-05T04:15:12.073Z,1011.2
2018-09-05T04:15:38.245Z,1011.23
2018-09-05T04:16:04.389Z,1011.23
2018-09-05T04:16:30.518Z,1011.24
2018-09-05T04:16:56.651Z,1011.22
2018-09-05T04:17:22.814Z,1011.23
2018-09-05T04:17:48.952Z,1011.24
2018-09-05T04:18:15.083Z,1011.24
2018-09-05T04:18:41.217Z,1011.24
2018-09-05T04:19:07.378Z,1011.24
2018-09-05T04:19:33.536Z,1011.23
2018-09-05T04:19:59.697Z,1011.24
2018-09-05T04:20:25.847Z,1011.23
2018-09-05T04:20:51.985Z,1011.24
2018-09-05T04:21:18.147Z,1011.24
2018-09-05T04:21:44.301Z,1011.25
2018-09-05T04:22:10.537Z,1011.27
2018-09-05T04:22:36.617Z,1011.24
2018-09-05T04:23:02.772Z,1011.25
2018-09-05T04:23:28.910Z,1011.23
2018-09-05T04:23:55.076Z,1011.23
2018-09-05T04:24:21.236Z,1011.24
2018-09-05T04:24:47.389Z,1011.23
2018-09-05T04:25:13.551Z,1011.25
2018-09-05T04:25:39.712Z,1011.25
2018-09-05T04:26:05.845Z,1011.26
2018-09-05T04:26:31.985Z,1011.25
2018-09-05T04:26:58.117Z,1011.26
2018-09-05T04:27:24.249Z,1011.24
2018-09-05T04:27:50.385Z,1011.27
2018-09-05T04:28:16.520Z,1011.24
2018-09-05T04:28:42.663Z,1011.27
2018-09-05T04:29:08.797Z,1011.23
2018-09-05T04:29:35.074Z,1011.26
2018-09-05T04:30:01.118Z,1011.25
2018-09-05T04:30:27.243Z,1011.24
2018-09-05T04:30:53.461Z,1011.21
2018-09-05T04:31:19.595Z,1011.21
2018-09-05T04:31:45.731Z,1011.22
2018-09-05T04:32:11.886Z,1011.22
2018-09-05T04:32:38.017Z,1011.25
2018-09-05T04:33:04.158Z,1011.22
2018-09-05T04:33:30.298Z,1011.22
2018-09-05T04:33:56.456Z,1011.24
2018-09-05T04:34:22.589Z,1011.2
2018-09-05T04:34:48.738Z,1011.21
2018-09-05T04:35:14.891Z,1011.21
2018-09-05T04:35:41.068Z,1011.22
2018-09-05T04:36:07.203Z,1011.21
2018-09-05T04:36:33.393Z,1011.23
2018-09-05T04:36:59.529Z,1011.22
2018-09-05T04:37:25.690Z,1011.22
2018-09-05T04:37:51.825Z,1011.22
2018-09-05T04:38:17.949Z,1011.21
2018-09-05T04:38:44.094Z,1011.2
2018-09-05T04:39:10.244Z,1011.26
2018-09-05T04:39:36.383Z,1011.25
2018-09-05T04:40:02.517Z,1011.22
2018-09-05T04:40:28.653Z,1011.24
2018-09-05T04:40:54.810Z,1011.23
2018-09-05T04:41:20.960Z,1011.25
2018-09-05T04:41:47.123Z,1011.26
2018-09-05T04:42:13.279Z,1011.24
2018-09-05T04:42:39.416Z,1011.23
2018-09-05T04:43:05.583Z,1011.23
2018-09-05T04:43:31.718Z,1011.27
2018-09-05T04:43:57.877Z,1011.25
2018-09-05T04:44:24.018Z,1011.25
2018-09-05T04:44:50.151Z,1011.26
2018-09-05T04:45:16.370Z,1011.23
2018-09-05T04:45:42.431Z,1011.22
2018-09-05T04:46:08.566Z,1011.26
2018-09-05T04:46:34.697Z,1011.26
2018-09-05T04:47:00.834Z,1011.25
2018-09-05T04:47:26.986Z,1011.27
2018-09-05T04:47:53.144Z,1011.24
2018-09-05T04:48:19.276Z,1011.23
2018-09-05T04:48:45.417Z,1011.27
2018-09-05T04:49:11.573Z,1011.25
2018-09-05T04:49:37.707Z,1011.27
2018-09-05T04:50:03.868Z,1011.27
2018-09-05T04:50:30.007Z,1011.23
2018-09-05T04:50:56.174Z,1011.27
2018-09-05T04:51:22.312Z,1011.29
2018-09-05T04:51:48.492Z,1011.26
2018-09-05T04:52:14.646Z,1011.28
2018-09-05T04:52:40.880Z,1011.31
2018-09-05T04:53:06.918Z,1011.33
2018-09-05T04:53:33.097Z,1011.34
2018-09-05T04:53:59.238Z,1011.3
2018-09-05T04:54:25.379Z,1011.29
2018-09-05T04:54:51.510Z,1011.33
2018-09-05T04:55:17.660Z,1011.35
2018-09-05T04:55:43.828Z,1011.31
2018-09-05T04:56:09.989Z,1011.32
2018-09-05T04:56:36.126Z,1011.35
2018-09-05T04:57:02.293Z,1011.32
2018-09-05T04:57:28.426Z,1011.37
2018-09-05T04:57:54.557Z,1011.37
2018-09-05T04:58:20.773Z,1011.33
2018-09-05T04:58:46.829Z,1011.33
2018-09-05T04:59:12.986Z,1011.34
2018-09-05T04:59:39.135Z,1011.33
2018-09-05T05:00:05.274Z,1011.32
2018-09-05T05:00:31.406Z,1011.33
2018-09-05T05:00:57.535Z,1011.35
2018-09-05T05:01:23.697Z,1011.3
2018-09-05T05:01:49.859Z,1011.3
2018-09-05T05:02:15.985Z,1011.3
2018-09-05T05:02:42.124Z,1011.3
2018-09-05T05:03:08.266Z,1011.32
2018-09-05T05:03:34.399Z,1011.33
2018-09-05T05:04:00.558Z,1011.34
2018-09-05T05:04:26.708Z,1011.38
2018-09-05T05:04:52.817Z,1011.34
2018-09-05T05:05:18.958Z,1011.33
2018-09-05T05:05:45.133Z,1011.35
2018-09-05T05:06:11.332Z,1011.34
2018-09-05T05:06:37.467Z,1011.37
2018-09-05T05:07:03.623Z,1011.35
2018-09-05T05:07:29.752Z,1011.33
2018-09-05T05:07:55.917Z,1011.35
2018-09-05T05:08:22.044Z,1011.38
2018-09-05T05:08:48.177Z,1011.37
2018-09-05T05:09:14.377Z,1011.35
2018-09-05T05:09:40.521Z,1011.37
2018-09-05T05:10:06.656Z,1011.35
2018-09-05T05:10:32.813Z,1011.37
2018-09-05T05:10:58.971Z,1011.37
2018-09-05T05:11:25.127Z,1011.36
2018-09-05T05:11:51.309Z,1011.38
2018-09-05T05:12:17.440Z,1011.37
2018-09-05T05:12:43.599Z,1011.34
2018-09-05T05:13:09.752Z,1011.36
2018-09-05T05:13:35.906Z,1011.34
2018-09-05T05:14:02.038Z,1011.36
2018-09-05T05:14:28.169Z,1011.37
2018-09-05T05:14:54.306Z,1011.38
2018-09-05T05:15:20.438Z,1011.37
2018-09-05T05:15:46.592Z,1011.35
2018-09-05T05:16:12.731Z,1011.38
2018-09-05T05:16:38.887Z,1011.35
2018-09-05T05:17:05.028Z,1011.41
2018-09-05T05:17:31.193Z,1011.37
2018-09-05T05:17:57.345Z,1011.37